sensor_id;sensor_type;location;lat;lon;timestamp;temperature;humidity
51305;HTU21D;37392;50.964;6.952;2022-08-14T00:00:14;21.95;60.11
51305;HTU21D;37392;50.964;6.952;2022-08-14T00:02:41;21.94;60.50
51305;HTU21D;37392;50.964;6.952;2022-08-14T00:05:08;21.90;60.66
51305;HTU21D;37392;50.964;6.952;2022-08-14T00:07:35;21.84;61.28
51305;HTU21D;37392;50.964;6.952;2022-08-14T00:10:02;21.85;61.47
51305;HTU21D;37392;50.964;6.952;2022-08-14T00:12:29;21.82;61.72
51305;HTU21D;37392;50.964;6.952;2022-08-14T00:14:59;21.79;62.13
51305;HTU21D;37392;50.964;6.952;2022-08-14T00:17:26;21.73;62.32
51305;HTU21D;37392;50.964;6.952;2022-08-14T00:19:51;21.75;62.56
51305;HTU21D;37392;50.964;6.952;2022-08-14T00:22:17;21.72;62.76
51305;HTU21D;37392;50.964;6.952;2022-08-14T00:24:43;21.64;62.93
51305;HTU21D;37392;50.964;6.952;2022-08-14T00:27:09;21.59;63.28
51305;HTU21D;37392;50.964;6.952;2022-08-14T00:29:35;21.50;63.60
51305;HTU21D;37392;50.964;6.952;2022-08-14T00:32:01;21.50;64.03
51305;HTU21D;37392;50.964;6.952;2022-08-14T00:34:26;21.47;64.11
51305;HTU21D;37392;50.964;6.952;2022-08-14T00:36:52;21.49;64.51
51305;HTU21D;37392;50.964;6.952;2022-08-14T00:39:17;21.45;64.98
51305;HTU21D;37392;50.964;6.952;2022-08-14T00:41:43;21.49;65.16
51305;HTU21D;37392;50.964;6.952;2022-08-14T00:44:09;21.48;65.29
51305;HTU21D;37392;50.964;6.952;2022-08-14T00:46:38;21.46;65.82
51305;HTU21D;37392;50.964;6.952;2022-08-14T00:49:05;21.48;65.94
51305;HTU21D;37392;50.964;6.952;2022-08-14T00:51:32;21.52;66.17
51305;HTU21D;37392;50.964;6.952;2022-08-14T00:53:59;21.50;66.46
51305;HTU21D;37392;50.964;6.952;2022-08-14T00:56:26;21.50;66.65
51305;HTU21D;37392;50.964;6.952;2022-08-14T00:58:52;21.47;66.91
51305;HTU21D;37392;50.964;6.952;2022-08-14T01:01:19;21.43;67.30
51305;HTU21D;37392;50.964;6.952;2022-08-14T01:03:45;21.36;67.47
51305;HTU21D;37392;50.964;6.952;2022-08-14T01:06:11;21.37;67.83
51305;HTU21D;37392;50.964;6.952;2022-08-14T01:08:41;21.36;68.06
51305;HTU21D;37392;50.964;6.952;2022-08-14T01:11:08;21.34;68.26
51305;HTU21D;37392;50.964;6.952;2022-08-14T01:13:36;21.34;68.52
51305;HTU21D;37392;50.964;6.952;2022-08-14T01:16:05;21.33;68.75
51305;HTU21D;37392;50.964;6.952;2022-08-14T01:18:32;21.24;68.97
51305;HTU21D;37392;50.964;6.952;2022-08-14T01:21:29;21.20;69.17
51305;HTU21D;37392;50.964;6.952;2022-08-14T01:23:56;21.17;69.52
51305;HTU21D;37392;50.964;6.952;2022-08-14T01:26:22;21.20;69.81
51305;HTU21D;37392;50.964;6.952;2022-08-14T01:28:53;21.19;69.94
51305;HTU21D;37392;50.964;6.952;2022-08-14T01:31:21;21.19;70.31
51305;HTU21D;37392;50.964;6.952;2022-08-14T01:33:48;21.18;70.45
51305;HTU21D;37392;50.964;6.952;2022-08-14T01:36:16;21.15;70.64
51305;HTU21D;37392;50.964;6.952;2022-08-14T01:38:44;21.10;70.90
51305;HTU21D;37392;50.964;6.952;2022-08-14T01:41:16;21.10;71.24
51305;HTU21D;37392;50.964;6.952;2022-08-14T01:46:26;21.16;71.45
51305;HTU21D;37392;50.964;6.952;2022-08-14T01:48:55;21.11;71.70
51305;HTU21D;37392;50.964;6.952;2022-08-14T01:51:22;21.10;71.93
51305;HTU21D;37392;50.964;6.952;2022-08-14T01:53:50;21.10;72.10
51305;HTU21D;37392;50.964;6.952;2022-08-14T01:56:20;21.08;72.27
51305;HTU21D;37392;50.964;6.952;2022-08-14T01:58:47;21.02;72.56
51305;HTU21D;37392;50.964;6.952;2022-08-14T02:01:19;21.03;72.84
51305;HTU21D;37392;50.964;6.952;2022-08-14T02:03:45;21.04;72.85
51305;HTU21D;37392;50.964;6.952;2022-08-14T02:06:12;20.99;73.22
51305;HTU21D;37392;50.964;6.952;2022-08-14T02:08:38;20.93;73.38
51305;HTU21D;37392;50.964;6.952;2022-08-14T02:11:05;20.88;73.61
51305;HTU21D;37392;50.964;6.952;2022-08-14T02:13:45;20.81;73.91
51305;HTU21D;37392;50.964;6.952;2022-08-14T02:16:12;20.69;74.39
51305;HTU21D;37392;50.964;6.952;2022-08-14T02:18:40;20.59;74.62
51305;HTU21D;37392;50.964;6.952;2022-08-14T02:21:06;20.50;74.92
51305;HTU21D;37392;50.964;6.952;2022-08-14T02:23:33;20.48;75.06
51305;HTU21D;37392;50.964;6.952;2022-08-14T02:25:59;20.37;75.15
51305;HTU21D;37392;50.964;6.952;2022-08-14T02:28:26;20.37;75.84
51305;HTU21D;37392;50.964;6.952;2022-08-14T02:30:54;20.32;75.99
51305;HTU21D;37392;50.964;6.952;2022-08-14T02:33:20;20.25;75.87
51305;HTU21D;37392;50.964;6.952;2022-08-14T02:35:47;20.17;75.95
51305;HTU21D;37392;50.964;6.952;2022-08-14T02:38:13;20.13;76.57
51305;HTU21D;37392;50.964;6.952;2022-08-14T02:40:38;20.12;77.05
51305;HTU21D;37392;50.964;6.952;2022-08-14T02:43:04;20.15;77.18
51305;HTU21D;37392;50.964;6.952;2022-08-14T02:45:31;20.12;77.13
51305;HTU21D;37392;50.964;6.952;2022-08-14T02:48:00;20.12;77.17
51305;HTU21D;37392;50.964;6.952;2022-08-14T02:50:28;20.07;77.33
51305;HTU21D;37392;50.964;6.952;2022-08-14T02:52:54;20.06;77.69
51305;HTU21D;37392;50.964;6.952;2022-08-14T02:55:19;20.07;77.61
51305;HTU21D;37392;50.964;6.952;2022-08-14T02:57:46;20.02;77.71
51305;HTU21D;37392;50.964;6.952;2022-08-14T03:00:15;19.98;78.01
51305;HTU21D;37392;50.964;6.952;2022-08-14T03:02:41;19.96;78.11
51305;HTU21D;37392;50.964;6.952;2022-08-14T03:05:07;19.96;78.57
51305;HTU21D;37392;50.964;6.952;2022-08-14T03:07:32;20.03;78.87
51305;HTU21D;37392;50.964;6.952;2022-08-14T03:09:58;20.09;78.56
51305;HTU21D;37392;50.964;6.952;2022-08-14T03:12:24;20.15;78.66
51305;HTU21D;37392;50.964;6.952;2022-08-14T03:14:50;20.15;78.69
51305;HTU21D;37392;50.964;6.952;2022-08-14T03:17:17;20.15;78.59
51305;HTU21D;37392;50.964;6.952;2022-08-14T03:19:42;20.12;78.69
51305;HTU21D;37392;50.964;6.952;2022-08-14T03:22:08;20.16;78.63
51305;HTU21D;37392;50.964;6.952;2022-08-14T03:24:34;20.22;78.41
51305;HTU21D;37392;50.964;6.952;2022-08-14T03:27:01;20.28;78.10
51305;HTU21D;37392;50.964;6.952;2022-08-14T03:29:26;20.25;78.16
51305;HTU21D;37392;50.964;6.952;2022-08-14T03:31:53;20.26;78.19
51305;HTU21D;37392;50.964;6.952;2022-08-14T03:34:19;20.21;78.29
51305;HTU21D;37392;50.964;6.952;2022-08-14T03:36:48;20.19;78.49
51305;HTU21D;37392;50.964;6.952;2022-08-14T03:39:19;20.15;78.56
51305;HTU21D;37392;50.964;6.952;2022-08-14T03:41:45;20.10;78.57
51305;HTU21D;37392;50.964;6.952;2022-08-14T03:44:11;20.10;78.47
51305;HTU21D;37392;50.964;6.952;2022-08-14T03:46:37;20.06;78.34
51305;HTU21D;37392;50.964;6.952;2022-08-14T03:49:04;20.04;78.35
51305;HTU21D;37392;50.964;6.952;2022-08-14T03:51:30;20.01;78.27
51305;HTU21D;37392;50.964;6.952;2022-08-14T03:53:57;19.96;78.38
51305;HTU21D;37392;50.964;6.952;2022-08-14T03:56:24;19.89;78.31
51305;HTU21D;37392;50.964;6.952;2022-08-14T03:58:52;19.87;78.33
51305;HTU21D;37392;50.964;6.952;2022-08-14T04:01:20;19.90;78.31
51305;HTU21D;37392;50.964;6.952;2022-08-14T04:03:47;19.92;78.37
51305;HTU21D;37392;50.964;6.952;2022-08-14T04:06:14;19.97;78.25
51305;HTU21D;37392;50.964;6.952;2022-08-14T04:08:40;20.00;78.13
51305;HTU21D;37392;50.964;6.952;2022-08-14T04:11:07;19.98;78.13
51305;HTU21D;37392;50.964;6.952;2022-08-14T04:13:34;19.88;78.47
51305;HTU21D;37392;50.964;6.952;2022-08-14T04:16:02;19.81;78.74
51305;HTU21D;37392;50.964;6.952;2022-08-14T04:18:32;19.83;78.87
51305;HTU21D;37392;50.964;6.952;2022-08-14T04:20:57;19.82;79.03
51305;HTU21D;37392;50.964;6.952;2022-08-14T04:23:24;19.83;79.08
51305;HTU21D;37392;50.964;6.952;2022-08-14T04:25:50;19.76;79.30
51305;HTU21D;37392;50.964;6.952;2022-08-14T04:28:18;19.75;79.37
51305;HTU21D;37392;50.964;6.952;2022-08-14T04:30:44;19.70;79.52
51305;HTU21D;37392;50.964;6.952;2022-08-14T04:33:09;19.79;79.53
51305;HTU21D;37392;50.964;6.952;2022-08-14T04:35:36;19.80;79.37
51305;HTU21D;37392;50.964;6.952;2022-08-14T04:38:05;19.88;79.14
51305;HTU21D;37392;50.964;6.952;2022-08-14T04:40:50;19.97;79.08
51305;HTU21D;37392;50.964;6.952;2022-08-14T04:43:34;20.12;78.96
51305;HTU21D;37392;50.964;6.952;2022-08-14T04:46:04;20.54;77.76
51305;HTU21D;37392;50.964;6.952;2022-08-14T04:48:31;21.07;75.91
51305;HTU21D;37392;50.964;6.952;2022-08-14T04:50:57;21.55;74.24
51305;HTU21D;37392;50.964;6.952;2022-08-14T04:53:27;22.07;72.62
51305;HTU21D;37392;50.964;6.952;2022-08-14T04:55:53;22.44;71.03
51305;HTU21D;37392;50.964;6.952;2022-08-14T04:58:20;22.78;69.90
51305;HTU21D;37392;50.964;6.952;2022-08-14T05:00:50;23.24;68.63
51305;HTU21D;37392;50.964;6.952;2022-08-14T05:03:17;23.65;67.40
51305;HTU21D;37392;50.964;6.952;2022-08-14T05:05:47;24.16;66.37
51305;HTU21D;37392;50.964;6.952;2022-08-14T05:08:13;24.56;65.04
51305;HTU21D;37392;50.964;6.952;2022-08-14T05:10:39;24.64;64.43
51305;HTU21D;37392;50.964;6.952;2022-08-14T05:13:09;24.99;63.48
51305;HTU21D;37392;50.964;6.952;2022-08-14T05:15:35;25.24;63.08
51305;HTU21D;37392;50.964;6.952;2022-08-14T05:18:26;25.82;61.61
51305;HTU21D;37392;50.964;6.952;2022-08-14T05:20:52;25.93;60.78
51305;HTU21D;37392;50.964;6.952;2022-08-14T05:23:19;26.51;59.67
51305;HTU21D;37392;50.964;6.952;2022-08-14T05:25:46;26.51;59.11
51305;HTU21D;37392;50.964;6.952;2022-08-14T05:28:16;26.56;58.98
51305;HTU21D;37392;50.964;6.952;2022-08-14T05:30:44;26.80;58.41
51305;HTU21D;37392;50.964;6.952;2022-08-14T05:33:11;27.26;57.26
51305;HTU21D;37392;50.964;6.952;2022-08-14T05:35:37;27.54;56.97
51305;HTU21D;37392;50.964;6.952;2022-08-14T05:38:06;27.65;56.52
51305;HTU21D;37392;50.964;6.952;2022-08-14T05:40:33;27.87;55.69
51305;HTU21D;37392;50.964;6.952;2022-08-14T05:42:59;28.14;55.27
51305;HTU21D;37392;50.964;6.952;2022-08-14T05:45:25;28.67;54.10
51305;HTU21D;37392;50.964;6.952;2022-08-14T05:47:50;28.75;53.41
51305;HTU21D;37392;50.964;6.952;2022-08-14T05:50:16;29.32;52.66
51305;HTU21D;37392;50.964;6.952;2022-08-14T05:52:42;29.21;52.65
51305;HTU21D;37392;50.964;6.952;2022-08-14T05:55:08;29.61;51.83
51305;HTU21D;37392;50.964;6.952;2022-08-14T05:57:48;29.94;51.38
51305;HTU21D;37392;50.964;6.952;2022-08-14T06:00:22;29.96;50.85
51305;HTU21D;37392;50.964;6.952;2022-08-14T06:02:50;29.74;51.02
51305;HTU21D;37392;50.964;6.952;2022-08-14T06:05:15;29.89;50.95
51305;HTU21D;37392;50.964;6.952;2022-08-14T06:07:41;30.09;50.57
51305;HTU21D;37392;50.964;6.952;2022-08-14T06:10:07;30.03;50.53
51305;HTU21D;37392;50.964;6.952;2022-08-14T06:12:34;30.31;50.10
51305;HTU21D;37392;50.964;6.952;2022-08-14T06:15:00;30.96;48.82
51305;HTU21D;37392;50.964;6.952;2022-08-14T06:17:25;31.04;48.66
51305;HTU21D;37392;50.964;6.952;2022-08-14T06:19:51;31.24;48.28
51305;HTU21D;37392;50.964;6.952;2022-08-14T06:22:17;31.50;47.19
51305;HTU21D;37392;50.964;6.952;2022-08-14T06:24:42;31.69;46.94
51305;HTU21D;37392;50.964;6.952;2022-08-14T06:27:08;32.28;46.02
51305;HTU21D;37392;50.964;6.952;2022-08-14T06:29:37;32.43;45.65
51305;HTU21D;37392;50.964;6.952;2022-08-14T06:32:03;32.88;44.64
51305;HTU21D;37392;50.964;6.952;2022-08-14T06:34:29;32.96;44.45
51305;HTU21D;37392;50.964;6.952;2022-08-14T06:36:55;33.49;43.74
51305;HTU21D;37392;50.964;6.952;2022-08-14T06:39:24;33.61;43.16
51305;HTU21D;37392;50.964;6.952;2022-08-14T06:41:49;33.21;43.82
51305;HTU21D;37392;50.964;6.952;2022-08-14T06:44:15;33.52;43.09
51305;HTU21D;37392;50.964;6.952;2022-08-14T06:46:43;33.08;43.60
51305;HTU21D;37392;50.964;6.952;2022-08-14T06:49:08;33.02;44.22
51305;HTU21D;37392;50.964;6.952;2022-08-14T06:51:34;33.07;43.98
51305;HTU21D;37392;50.964;6.952;2022-08-14T06:54:00;33.29;43.80
51305;HTU21D;37392;50.964;6.952;2022-08-14T06:56:26;33.41;43.12
51305;HTU21D;37392;50.964;6.952;2022-08-14T06:58:51;33.30;43.67
51305;HTU21D;37392;50.964;6.952;2022-08-14T07:01:17;33.29;43.73
51305;HTU21D;37392;50.964;6.952;2022-08-14T07:04:01;33.88;43.07
51305;HTU21D;37392;50.964;6.952;2022-08-14T07:06:58;34.21;42.15
51305;HTU21D;37392;50.964;6.952;2022-08-14T07:09:24;34.69;41.48
51305;HTU21D;37392;50.964;6.952;2022-08-14T07:11:51;34.57;41.14
51305;HTU21D;37392;50.964;6.952;2022-08-14T07:14:16;34.26;41.46
51305;HTU21D;37392;50.964;6.952;2022-08-14T07:16:42;34.54;41.36
51305;HTU21D;37392;50.964;6.952;2022-08-14T07:19:07;34.80;41.23
51305;HTU21D;37392;50.964;6.952;2022-08-14T07:21:34;35.10;40.42
51305;HTU21D;37392;50.964;6.952;2022-08-14T07:24:01;35.07;40.74
51305;HTU21D;37392;50.964;6.952;2022-08-14T07:26:26;34.70;40.94
51305;HTU21D;37392;50.964;6.952;2022-08-14T07:28:52;35.08;40.43
51305;HTU21D;37392;50.964;6.952;2022-08-14T07:31:17;34.95;40.55
51305;HTU21D;37392;50.964;6.952;2022-08-14T07:33:46;35.11;40.61
51305;HTU21D;37392;50.964;6.952;2022-08-14T07:36:15;35.26;40.09
51305;HTU21D;37392;50.964;6.952;2022-08-14T07:38:41;35.38;40.07
51305;HTU21D;37392;50.964;6.952;2022-08-14T07:41:08;35.44;39.73
51305;HTU21D;37392;50.964;6.952;2022-08-14T07:43:35;35.69;39.63
51305;HTU21D;37392;50.964;6.952;2022-08-14T07:46:01;35.86;39.49
51305;HTU21D;37392;50.964;6.952;2022-08-14T07:48:28;36.33;38.77
51305;HTU21D;37392;50.964;6.952;2022-08-14T07:50:53;36.54;38.17
51305;HTU21D;37392;50.964;6.952;2022-08-14T07:53:19;36.68;37.70
51305;HTU21D;37392;50.964;6.952;2022-08-14T07:55:46;36.58;38.11
51305;HTU21D;37392;50.964;6.952;2022-08-14T07:58:11;36.69;37.88
51305;HTU21D;37392;50.964;6.952;2022-08-14T08:00:37;37.15;37.07
51305;HTU21D;37392;50.964;6.952;2022-08-14T08:03:03;37.42;36.97
51305;HTU21D;37392;50.964;6.952;2022-08-14T08:05:34;37.58;36.50
51305;HTU21D;37392;50.964;6.952;2022-08-14T08:08:00;37.87;36.11
51305;HTU21D;37392;50.964;6.952;2022-08-14T08:10:27;37.91;35.79
51305;HTU21D;37392;50.964;6.952;2022-08-14T08:12:56;37.91;35.87
51305;HTU21D;37392;50.964;6.952;2022-08-14T08:15:24;37.69;35.93
51305;HTU21D;37392;50.964;6.952;2022-08-14T08:17:51;37.17;36.91
51305;HTU21D;37392;50.964;6.952;2022-08-14T08:20:17;37.16;36.83
51305;HTU21D;37392;50.964;6.952;2022-08-14T08:22:48;37.42;36.63
51305;HTU21D;37392;50.964;6.952;2022-08-14T08:25:15;37.47;36.66
51305;HTU21D;37392;50.964;6.952;2022-08-14T08:27:52;37.78;36.32
51305;HTU21D;37392;50.964;6.952;2022-08-14T08:30:20;38.64;35.44
51305;HTU21D;37392;50.964;6.952;2022-08-14T08:32:46;38.50;34.85
51305;HTU21D;37392;50.964;6.952;2022-08-14T08:35:26;38.59;35.05
51305;HTU21D;37392;50.964;6.952;2022-08-14T08:37:54;38.65;34.70
51305;HTU21D;37392;50.964;6.952;2022-08-14T08:40:25;38.65;34.53
51305;HTU21D;37392;50.964;6.952;2022-08-14T08:42:52;38.66;34.63
51305;HTU21D;37392;50.964;6.952;2022-08-14T08:45:18;39.05;33.87
51305;HTU21D;37392;50.964;6.952;2022-08-14T08:47:45;39.45;33.55
51305;HTU21D;37392;50.964;6.952;2022-08-14T08:52:54;39.70;33.26
51305;HTU21D;37392;50.964;6.952;2022-08-14T08:55:28;40.02;32.80
51305;HTU21D;37392;50.964;6.952;2022-08-14T08:58:00;40.08;32.57
51305;HTU21D;37392;50.964;6.952;2022-08-14T09:00:28;39.81;32.70
51305;HTU21D;37392;50.964;6.952;2022-08-14T09:03:19;39.66;32.70
51305;HTU21D;37392;50.964;6.952;2022-08-14T09:06:01;40.04;32.38
51305;HTU21D;37392;50.964;6.952;2022-08-14T09:08:29;40.03;32.04
51305;HTU21D;37392;50.964;6.952;2022-08-14T09:10:56;40.13;31.87
51305;HTU21D;37392;50.964;6.952;2022-08-14T09:13:23;40.08;31.86
51305;HTU21D;37392;50.964;6.952;2022-08-14T09:15:52;40.13;32.06
51305;HTU21D;37392;50.964;6.952;2022-08-14T09:18:19;40.39;31.41
51305;HTU21D;37392;50.964;6.952;2022-08-14T09:20:48;40.77;31.01
51305;HTU21D;37392;50.964;6.952;2022-08-14T09:23:15;40.85;30.97
51305;HTU21D;37392;50.964;6.952;2022-08-14T09:25:42;41.27;30.51
51305;HTU21D;37392;50.964;6.952;2022-08-14T09:28:10;41.18;29.96
51305;HTU21D;37392;50.964;6.952;2022-08-14T09:30:36;40.72;30.45
51305;HTU21D;37392;50.964;6.952;2022-08-14T09:41:32;40.73;30.29
51305;HTU21D;37392;50.964;6.952;2022-08-14T09:44:05;40.73;29.95
51305;HTU21D;37392;50.964;6.952;2022-08-14T09:46:34;41.10;29.34
51305;HTU21D;37392;50.964;6.952;2022-08-14T09:49:00;41.19;29.43
51305;HTU21D;37392;50.964;6.952;2022-08-14T09:51:26;41.67;28.74
51305;HTU21D;37392;50.964;6.952;2022-08-14T09:54:00;42.03;28.56
51305;HTU21D;37392;50.964;6.952;2022-08-14T09:56:48;42.85;27.84
51305;HTU21D;37392;50.964;6.952;2022-08-14T09:59:15;42.80;27.20
51305;HTU21D;37392;50.964;6.952;2022-08-14T10:01:46;42.58;27.20
51305;HTU21D;37392;50.964;6.952;2022-08-14T10:04:22;42.67;26.97
51305;HTU21D;37392;50.964;6.952;2022-08-14T10:06:50;42.92;26.81
51305;HTU21D;37392;50.964;6.952;2022-08-14T10:09:16;42.90;26.20
51305;HTU21D;37392;50.964;6.952;2022-08-14T10:11:52;43.20;26.39
51305;HTU21D;37392;50.964;6.952;2022-08-14T10:14:20;43.36;26.44
51305;HTU21D;37392;50.964;6.952;2022-08-14T10:16:50;43.79;26.26
51305;HTU21D;37392;50.964;6.952;2022-08-14T10:19:21;43.95;26.07
51305;HTU21D;37392;50.964;6.952;2022-08-14T10:21:56;43.88;25.44
51305;HTU21D;37392;50.964;6.952;2022-08-14T10:24:22;43.84;25.68
51305;HTU21D;37392;50.964;6.952;2022-08-14T10:26:53;43.68;26.01
51305;HTU21D;37392;50.964;6.952;2022-08-14T10:29:32;44.33;25.11
51305;HTU21D;37392;50.964;6.952;2022-08-14T10:32:00;44.50;23.98
51305;HTU21D;37392;50.964;6.952;2022-08-14T10:34:33;44.74;23.92
51305;HTU21D;37392;50.964;6.952;2022-08-14T10:37:08;44.68;23.97
51305;HTU21D;37392;50.964;6.952;2022-08-14T10:39:36;44.46;23.45
51305;HTU21D;37392;50.964;6.952;2022-08-14T10:42:07;44.51;23.05
51305;HTU21D;37392;50.964;6.952;2022-08-14T10:44:39;44.16;23.32
51305;HTU21D;37392;50.964;6.952;2022-08-14T10:47:10;43.66;24.04
51305;HTU21D;37392;50.964;6.952;2022-08-14T10:49:36;43.27;24.28
51305;HTU21D;37392;50.964;6.952;2022-08-14T10:52:21;42.10;25.46
51305;HTU21D;37392;50.964;6.952;2022-08-14T10:54:49;41.76;26.10
51305;HTU21D;37392;50.964;6.952;2022-08-14T11:02:18;42.08;25.74
51305;HTU21D;37392;50.964;6.952;2022-08-14T11:07:30;40.52;27.01
51305;HTU21D;37392;50.964;6.952;2022-08-14T11:10:00;40.13;27.78
51305;HTU21D;37392;50.964;6.952;2022-08-14T11:12:44;39.57;28.27
51305;HTU21D;37392;50.964;6.952;2022-08-14T11:17:41;38.92;29.42
51305;HTU21D;37392;50.964;6.952;2022-08-14T11:20:07;38.28;29.84
51305;HTU21D;37392;50.964;6.952;2022-08-14T11:22:34;37.64;30.46
51305;HTU21D;37392;50.964;6.952;2022-08-14T11:25:04;37.26;31.20
51305;HTU21D;37392;50.964;6.952;2022-08-14T11:27:32;37.17;30.99
51305;HTU21D;37392;50.964;6.952;2022-08-14T11:29:59;37.27;30.66
51305;HTU21D;37392;50.964;6.952;2022-08-14T11:32:28;37.13;30.74
51305;HTU21D;37392;50.964;6.952;2022-08-14T11:34:55;36.99;30.62
51305;HTU21D;37392;50.964;6.952;2022-08-14T11:37:21;36.98;30.76
51305;HTU21D;37392;50.964;6.952;2022-08-14T11:39:47;36.83;31.03
51305;HTU21D;37392;50.964;6.952;2022-08-14T11:42:23;36.51;31.27
51305;HTU21D;37392;50.964;6.952;2022-08-14T11:44:55;35.89;32.19
51305;HTU21D;37392;50.964;6.952;2022-08-14T11:47:21;35.57;32.49
51305;HTU21D;37392;50.964;6.952;2022-08-14T11:49:48;35.29;32.99
51305;HTU21D;37392;50.964;6.952;2022-08-14T11:52:14;35.06;33.54
51305;HTU21D;37392;50.964;6.952;2022-08-14T11:54:40;35.11;33.83
51305;HTU21D;37392;50.964;6.952;2022-08-14T11:57:15;34.69;34.08
51305;HTU21D;37392;50.964;6.952;2022-08-14T11:59:41;34.36;34.34
51305;HTU21D;37392;50.964;6.952;2022-08-14T12:02:08;34.21;34.66
51305;HTU21D;37392;50.964;6.952;2022-08-14T12:04:48;34.14;34.70
51305;HTU21D;37392;50.964;6.952;2022-08-14T12:07:17;34.32;34.75
51305;HTU21D;37392;50.964;6.952;2022-08-14T12:09:43;34.46;34.88
51305;HTU21D;37392;50.964;6.952;2022-08-14T12:12:14;34.45;35.08
51305;HTU21D;37392;50.964;6.952;2022-08-14T12:14:56;34.46;35.24
51305;HTU21D;37392;50.964;6.952;2022-08-14T12:17:25;34.17;35.51
51305;HTU21D;37392;50.964;6.952;2022-08-14T12:19:56;33.94;35.65
51305;HTU21D;37392;50.964;6.952;2022-08-14T12:22:32;33.94;35.39
51305;HTU21D;37392;50.964;6.952;2022-08-14T12:24:59;34.01;35.49
51305;HTU21D;37392;50.964;6.952;2022-08-14T12:30:06;34.08;35.34
51305;HTU21D;37392;50.964;6.952;2022-08-14T12:32:42;34.05;35.74
51305;HTU21D;37392;50.964;6.952;2022-08-14T12:35:10;34.15;35.69
51305;HTU21D;37392;50.964;6.952;2022-08-14T12:37:36;34.15;35.73
51305;HTU21D;37392;50.964;6.952;2022-08-14T12:40:09;34.15;35.79
51305;HTU21D;37392;50.964;6.952;2022-08-14T12:42:39;34.30;35.64
51305;HTU21D;37392;50.964;6.952;2022-08-14T12:45:05;34.54;35.31
51305;HTU21D;37392;50.964;6.952;2022-08-14T12:47:31;34.64;34.94
51305;HTU21D;37392;50.964;6.952;2022-08-14T12:49:57;34.50;34.79
51305;HTU21D;37392;50.964;6.952;2022-08-14T12:52:42;34.11;35.25
51305;HTU21D;37392;50.964;6.952;2022-08-14T12:55:17;33.79;35.79
51305;HTU21D;37392;50.964;6.952;2022-08-14T12:57:45;33.52;36.52
51305;HTU21D;37392;50.964;6.952;2022-08-14T13:00:21;33.42;36.74
51305;HTU21D;37392;50.964;6.952;2022-08-14T13:02:48;33.26;37.01
51305;HTU21D;37392;50.964;6.952;2022-08-14T13:05:16;33.17;36.96
51305;HTU21D;37392;50.964;6.952;2022-08-14T13:07:42;33.02;37.24
51305;HTU21D;37392;50.964;6.952;2022-08-14T13:10:11;32.92;37.53
51305;HTU21D;37392;50.964;6.952;2022-08-14T13:12:40;32.96;37.88
51305;HTU21D;37392;50.964;6.952;2022-08-14T13:15:08;33.03;37.72
51305;HTU21D;37392;50.964;6.952;2022-08-14T13:17:38;33.25;37.46
51305;HTU21D;37392;50.964;6.952;2022-08-14T13:20:06;33.27;37.14
51305;HTU21D;37392;50.964;6.952;2022-08-14T13:22:35;33.33;37.33
51305;HTU21D;37392;50.964;6.952;2022-08-14T13:25:02;33.45;37.30
51305;HTU21D;37392;50.964;6.952;2022-08-14T13:27:28;33.42;37.06
51305;HTU21D;37392;50.964;6.952;2022-08-14T13:29:56;33.66;36.92
51305;HTU21D;37392;50.964;6.952;2022-08-14T13:32:23;33.46;37.09
51305;HTU21D;37392;50.964;6.952;2022-08-14T13:34:49;33.40;37.31
51305;HTU21D;37392;50.964;6.952;2022-08-14T13:37:15;33.44;37.36
51305;HTU21D;37392;50.964;6.952;2022-08-14T13:39:48;33.59;37.51
51305;HTU21D;37392;50.964;6.952;2022-08-14T13:42:18;33.66;36.88
51305;HTU21D;37392;50.964;6.952;2022-08-14T13:44:48;33.76;36.74
51305;HTU21D;37392;50.964;6.952;2022-08-14T13:47:15;33.77;36.64
51305;HTU21D;37392;50.964;6.952;2022-08-14T13:49:44;33.96;36.43
51305;HTU21D;37392;50.964;6.952;2022-08-14T13:52:10;34.14;36.21
51305;HTU21D;37392;50.964;6.952;2022-08-14T13:54:37;34.37;35.76
51305;HTU21D;37392;50.964;6.952;2022-08-14T13:57:04;34.56;35.12
51305;HTU21D;37392;50.964;6.952;2022-08-14T13:59:30;34.76;34.92
51305;HTU21D;37392;50.964;6.952;2022-08-14T14:02:03;34.63;34.90
51305;HTU21D;37392;50.964;6.952;2022-08-14T14:04:29;34.67;35.25
51305;HTU21D;37392;50.964;6.952;2022-08-14T14:06:55;34.65;35.21
51305;HTU21D;37392;50.964;6.952;2022-08-14T14:09:25;34.57;35.32
51305;HTU21D;37392;50.964;6.952;2022-08-14T14:11:52;34.60;35.16
51305;HTU21D;37392;50.964;6.952;2022-08-14T14:14:20;34.55;35.30
51305;HTU21D;37392;50.964;6.952;2022-08-14T14:16:47;34.47;35.49
51305;HTU21D;37392;50.964;6.952;2022-08-14T14:19:15;34.26;34.77
51305;HTU21D;37392;50.964;6.952;2022-08-14T14:21:42;34.07;34.66
51305;HTU21D;37392;50.964;6.952;2022-08-14T14:24:08;34.05;34.89
51305;HTU21D;37392;50.964;6.952;2022-08-14T14:26:34;34.15;34.91
51305;HTU21D;37392;50.964;6.952;2022-08-14T14:29:00;34.27;34.64
51305;HTU21D;37392;50.964;6.952;2022-08-14T14:31:27;34.33;34.73
51305;HTU21D;37392;50.964;6.952;2022-08-14T14:34:02;34.17;35.14
51305;HTU21D;37392;50.964;6.952;2022-08-14T14:36:30;34.09;35.24
51305;HTU21D;37392;50.964;6.952;2022-08-14T14:39:14;34.08;35.25
51305;HTU21D;37392;50.964;6.952;2022-08-14T14:41:41;33.99;35.22
51305;HTU21D;37392;50.964;6.952;2022-08-14T14:44:08;33.88;35.31
51305;HTU21D;37392;50.964;6.952;2022-08-14T14:46:37;33.79;35.60
51305;HTU21D;37392;50.964;6.952;2022-08-14T14:49:04;33.51;35.79
51305;HTU21D;37392;50.964;6.952;2022-08-14T14:51:32;33.55;35.72
51305;HTU21D;37392;50.964;6.952;2022-08-14T14:53:58;33.47;35.27
51305;HTU21D;37392;50.964;6.952;2022-08-14T14:56:26;33.44;35.00
51305;HTU21D;37392;50.964;6.952;2022-08-14T14:58:53;33.44;35.20
51305;HTU21D;37392;50.964;6.952;2022-08-14T15:01:19;33.36;35.18
51305;HTU21D;37392;50.964;6.952;2022-08-14T15:03:47;33.35;35.28
51305;HTU21D;37392;50.964;6.952;2022-08-14T15:06:13;33.34;34.89
51305;HTU21D;37392;50.964;6.952;2022-08-14T15:08:39;33.28;35.17
51305;HTU21D;37392;50.964;6.952;2022-08-14T15:11:05;33.34;35.15
51305;HTU21D;37392;50.964;6.952;2022-08-14T15:13:30;33.28;34.95
51305;HTU21D;37392;50.964;6.952;2022-08-14T15:15:56;33.20;35.08
51305;HTU21D;37392;50.964;6.952;2022-08-14T15:18:22;33.30;35.08
51305;HTU21D;37392;50.964;6.952;2022-08-14T15:20:51;33.48;34.90
51305;HTU21D;37392;50.964;6.952;2022-08-14T15:23:18;33.73;35.09
51305;HTU21D;37392;50.964;6.952;2022-08-14T15:25:45;33.94;34.68
51305;HTU21D;37392;50.964;6.952;2022-08-14T15:28:11;34.12;34.21
51305;HTU21D;37392;50.964;6.952;2022-08-14T15:30:40;34.11;34.16
51305;HTU21D;37392;50.964;6.952;2022-08-14T15:33:08;34.08;34.20
51305;HTU21D;37392;50.964;6.952;2022-08-14T15:35:34;33.94;34.51
51305;HTU21D;37392;50.964;6.952;2022-08-14T15:38:01;33.87;34.83
51305;HTU21D;37392;50.964;6.952;2022-08-14T15:40:34;33.91;34.99
51305;HTU21D;37392;50.964;6.952;2022-08-14T15:43:02;33.92;34.86
51305;HTU21D;37392;50.964;6.952;2022-08-14T15:45:28;33.82;34.64
51305;HTU21D;37392;50.964;6.952;2022-08-14T15:47:55;33.72;34.82